map of XCR home
XCR - Airport
Location
City:  Châlons-en-Champagne, Champagne-Ardenne, France
Near (Alt.):Châlons-sur-Marne
Name:Châlons Vatry International Airport
ICAO:LFOK
IATA:XCR

Details
Type:Airport (Aerodrome, Airfield)
Use:Public/Civil, International (customs port of entry)
Latitude:48°46'24"N (48.773333)
Longitude:4°12'22"E (4.206111)
Elevation:587 ft (179 m)
Variation:1.28°E (WMM2015 magnetic declination)
0.13° annual change
Runways:1
Longest:12664 × 148 ft (3860 × 45 m), paved

Time
Time Zone:UTC+1 (DST+2)
Local Time:

Weather
METAR:LFOK 181430Z AUTO 15012KT CAVOK 06/03 Q1015 NOSIG
TAF:LFOK 181100Z 1812/1912 15017KT CAVOK
BECMG 1823/1901 4000 RA OVC013
TEMPO 1901/1903 2000 DZRA OVC003
BECMG 1903/1905 9999 NSW
BECMG 1906/1910 BKN017

Related Locations
Nearby:
Farthest:CHT: 12086 mi / 19450 km
Waitangi [Tuuta], CIT, NZ

Find:

   beyond  
but within

Other Information
Maps:
NOTAMs:
Links:
Sources:

  
  • flag of France
  • flag of Champagne-Ardenne
  

Sectional Chart

Flight Planning
at skyvector.com

Satellite Image

Google Maps Satellite view

 

Copyright © 2004-2018 Karl L. Swartz. All rights reserved.
The Great Circle Mapper name and logo are trademarks of the Great Circle Mapper.
All other trademarks mentioned herein belong to their respective owners.
Please see credits for attibutions and further copyright information.

  Follow gcmap on Facebook Follow gcmap on Twitter Follow gcmap on Google+ GCmap on LinkedIn

hCard Microformat

Geo Microformat